Time;durP1;ratioP1;P1;durP2;ratioP2;P2;SDS_P1;SDS_P2;PMS_P1;PMS_P2;Temp;Humidity;BMP_temperature;BMP_pressure;BME280_temperature;BME280_humidity;BME280_pressure;Samples;Min_cycle;Max_cycle;Signal;HPM_P1;HPM_P2
2021/05/27 00:00:35;;;;;;;2.50;2.10;;;6.60;99.90;;;;;;2089823;28;20200;-65
2021/05/27 00:01:36;;;;;;;3.00;2.10;;;6.60;99.90;;;;;;2089300;28;20176;-65
2021/05/27 00:02:37;;;;;;;2.63;2.10;;;6.60;99.90;;;;;;2089840;28;20657;-65
2021/05/27 00:03:38;;;;;;;3.50;2.13;;;6.60;99.90;;;;;;2089705;28;20176;-65
2021/05/27 00:04:39;;;;;;;2.40;2.20;;;6.60;99.90;;;;;;2089846;28;20192;-66
2021/05/27 00:05:39;;;;;;;4.83;2.30;;;6.60;99.90;;;;;;2089864;28;20176;-66
2021/05/27 00:06:40;;;;;;;3.60;2.03;;;6.60;99.90;;;;;;2089752;28;20188;-65
2021/05/27 00:07:41;;;;;;;2.60;2.40;;;6.60;99.90;;;;;;2089689;28;20219;-65
2021/05/27 00:08:42;;;;;;;3.45;2.60;;;6.70;99.90;;;;;;2089255;28;20181;-65
2021/05/27 00:09:43;;;;;;;4.40;3.03;;;6.60;99.90;;;;;;2089131;28;20246;-66
2021/05/27 00:10:43;;;;;;;3.97;2.30;;;6.60;99.90;;;;;;2089834;28;20196;-65
2021/05/27 00:11:44;;;;;;;5.60;3.40;;;6.60;99.90;;;;;;2088962;28;20191;-66
2021/05/27 00:12:45;;;;;;;3.47;2.77;;;6.60;99.90;;;;;;2089174;28;20267;-66
2021/05/27 00:13:46;;;;;;;5.68;3.35;;;6.60;99.90;;;;;;2089654;28;20260;-66
2021/05/27 00:14:48;;;;;;;4.07;3.27;;;6.60;99.90;;;;;;2089848;28;20521;-65
2021/05/27 00:15:49;;;;;;;4.85;3.40;;;6.60;99.90;;;;;;2088835;28;20204;-65
2021/05/27 00:16:50;;;;;;;7.13;3.33;;;6.60;99.90;;;;;;2089150;28;20181;-65
2021/05/27 00:17:51;;;;;;;4.27;2.40;;;6.70;99.90;;;;;;2088902;28;20187;-65
2021/05/27 00:18:52;;;;;;;2.60;2.33;;;6.70;99.90;;;;;;2089105;28;20415;-65
2021/05/27 00:19:53;;;;;;;4.70;2.63;;;6.70;99.90;;;;;;2088883;28;20274;-65
2021/05/27 00:20:54;;;;;;;3.67;2.77;;;6.70;99.90;;;;;;2089119;28;20171;-66
2021/05/27 00:21:54;;;;;;;4.40;2.53;;;6.60;99.90;;;;;;2089256;28;20545;-65
2021/05/27 00:22:55;;;;;;;2.20;2.00;;;6.60;99.90;;;;;;2089445;28;20173;-66
2021/05/27 00:23:57;;;;;;;3.93;2.77;;;6.70;99.90;;;;;;2089707;28;20204;-66
2021/05/27 00:24:57;;;;;;;3.83;2.60;;;6.70;99.90;;;;;;2089522;28;20231;-66
2021/05/27 00:25:58;;;;;;;2.50;2.30;;;6.70;99.90;;;;;;2089631;28;20180;-65
2021/05/27 00:26:59;;;;;;;4.43;2.30;;;6.70;99.90;;;;;;2089552;28;20258;-66
2021/05/27 00:27:59;;;;;;;2.30;2.10;;;6.70;99.90;;;;;;2089660;28;20180;-66
2021/05/27 00:29:00;;;;;;;2.63;1.90;;;6.70;99.90;;;;;;2089300;28;20745;-66
2021/05/27 00:30:03;;;;;;;2.87;1.80;;;6.60;99.90;;;;;;2089562;28;20172;-65
2021/05/27 00:31:04;;;;;;;2.67;2.00;;;6.60;99.90;;;;;;2088873;28;20275;-65
2021/05/27 00:32:05;;;;;;;3.42;1.40;;;6.60;99.90;;;;;;2088766;28;20192;-65
2021/05/27 00:33:06;;;;;;;2.75;1.45;;;6.60;99.90;;;;;;2089475;28;20179;-65
2021/05/27 00:34:07;;;;;;;1.40;1.30;;;6.60;99.90;;;;;;2089542;28;20188;-65
2021/05/27 00:35:09;;;;;;;1.70;1.30;;;6.60;99.90;;;;;;2089522;28;20268;-65
2021/05/27 00:36:10;;;;;;;1.50;1.40;;;6.50;99.90;;;;;;2089614;28;20202;-65
2021/05/27 00:37:11;;;;;;;1.77;1.33;;;6.50;99.90;;;;;;2089484;28;20595;-65
2021/05/27 00:38:11;;;;;;;1.40;1.30;;;6.60;99.90;;;;;;2089667;28;20180;-65
2021/05/27 00:39:12;;;;;;;1.40;1.30;;;6.50;99.90;;;;;;2089300;28;20199;-65
2021/05/27 00:40:16;;;;;;;3.13;1.40;;;6.50;99.90;;;;;;2089554;28;20196;-65
2021/05/27 00:41:17;;;;;;;3.13;1.20;;;6.50;99.90;;;;;;2089177;28;20180;-65
2021/05/27 00:42:18;;;;;;;1.40;1.30;;;6.60;99.90;;;;;;2089601;28;20188;-66
2021/05/27 00:43:19;;;;;;;2.27;1.50;;;6.50;99.90;;;;;;2089412;28;20191;-66
2021/05/27 00:44:31;;;;;;;2.10;1.60;;;6.50;99.90;;;;;;2089572;28;20611;-65
2021/05/27 00:45:33;;;;;;;1.35;1.23;;;6.50;99.90;;;;;;2088765;28;20215;-65
2021/05/27 00:46:33;;;;;;;1.40;1.30;;;6.40;99.90;;;;;;2088855;28;20553;-65
2021/05/27 00:47:34;;;;;;;1.23;1.10;;;6.40;99.90;;;;;;2089271;28;20171;-65
2021/05/27 00:49:54;;;;;;;1.25;0.93;;;6.30;99.90;;;;;;2089148;28;20168;-65
2021/05/27 00:50:55;;;;;;;1.00;0.90;;;6.30;99.90;;;;;;2089426;28;20202;-65
2021/05/27 00:51:56;;;;;;;1.10;1.00;;;6.20;99.90;;;;;;2089101;28;20278;-65
2021/05/27 00:52:57;;;;;;;1.00;1.00;;;6.20;99.90;;;;;;2089402;28;20268;-65
2021/05/27 00:53:58;;;;;;;0.90;0.90;;;6.10;99.90;;;;;;2089317;28;20182;-65
2021/05/27 00:55:03;;;;;;;1.43;1.03;;;6.00;99.90;;;;;;2089387;28;20531;-65
2021/05/27 00:56:04;;;;;;;1.10;0.90;;;6.00;99.90;;;;;;2088943;28;20616;-66
2021/05/27 00:57:13;;;;;;;1.00;0.90;;;6.00;99.90;;;;;;2089405;28;20215;-65
2021/05/27 00:58:15;;;;;;;1.75;0.90;;;5.90;99.90;;;;;;2088660;28;20852;-65
2021/05/27 00:59:16;;;;;;;0.88;0.88;;;6.00;99.90;;;;;;2080870;28;20196;-65
2021/05/27 01:00:21;;;;;;;0.87;0.80;;;6.00;99.90;;;;;;2088637;28;20207;-65
2021/05/27 01:01:23;;;;;;;1.75;0.98;;;6.00;99.90;;;;;;2089113;28;20205;-65
2021/05/27 01:02:24;;;;;;;2.58;0.88;;;5.90;99.90;;;;;;2089281;28;20191;-66
2021/05/27 01:03:25;;;;;;;1.23;1.00;;;5.90;99.90;;;;;;2088694;28;20528;-65
2021/05/27 01:04:26;;;;;;;1.60;1.30;;;5.90;99.90;;;;;;2088697;28;20198;-65
2021/05/27 01:05:28;;;;;;;1.50;1.00;;;5.90;99.90;;;;;;2089293;28;20189;-66
2021/05/27 01:06:29;;;;;;;1.42;1.10;;;5.90;99.90;;;;;;2089008;28;20182;-65
2021/05/27 01:07:30;;;;;;;1.33;1.23;;;5.90;99.90;;;;;;2089375;28;20267;-66
2021/05/27 01:08:30;;;;;;;1.33;1.17;;;5.90;99.90;;;;;;2089191;28;20179;-66
2021/05/27 01:09:31;;;;;;;1.27;1.17;;;5.90;99.90;;;;;;2089320;28;20179;-65
2021/05/27 01:10:33;;;;;;;1.63;1.20;;;5.90;99.90;;;;;;2088453;28;20200;-65
2021/05/27 01:11:33;;;;;;;2.45;1.58;;;5.90;99.90;;;;;;2088284;28;20268;-65
2021/05/27 01:12:35;;;;;;;3.40;1.90;;;5.90;99.90;;;;;;2088727;28;20627;-65
2021/05/27 01:13:36;;;;;;;2.95;1.95;;;5.90;99.90;;;;;;2089146;28;20230;-66
2021/05/27 01:15:56;;;;;;;2.55;1.45;;;5.80;99.90;;;;;;2089184;28;20192;-65
2021/05/27 01:16:57;;;;;;;2.37;1.60;;;5.80;99.90;;;;;;2089072;28;20192;-65
2021/05/27 01:18:11;;;;;;;1.80;1.23;;;5.80;99.90;;;;;;2089242;28;20263;-66
2021/05/27 01:19:12;;;;;;;2.20;1.70;;;5.80;99.90;;;;;;2089242;28;20192;-65
2021/05/27 01:20:14;;;;;;;2.80;1.43;;;5.80;99.90;;;;;;2088999;28;20216;-65
2021/05/27 01:21:16;;;;;;;0.98;0.88;;;5.80;99.90;;;;;;2088909;28;20187;-66
2021/05/27 01:22:19;;;;;;;1.25;1.15;;;5.80;99.90;;;;;;2088417;28;20677;-66
2021/05/27 01:23:22;;;;;;;1.13;1.10;;;5.80;99.90;;;;;;2088544;28;20190;-66
2021/05/27 01:24:23;;;;;;;1.30;1.10;;;5.80;99.90;;;;;;2088594;28;20191;-66
2021/05/27 01:25:24;;;;;;;1.30;1.20;;;5.80;99.90;;;;;;2089062;28;20189;-65
2021/05/27 01:26:25;;;;;;;2.07;1.60;;;5.80;99.90;;;;;;2089245;28;20663;-65
2021/05/27 01:27:26;;;;;;;2.40;1.50;;;5.80;99.90;;;;;;2089043;28;20267;-66
2021/05/27 01:28:30;;;;;;;2.87;1.73;;;5.80;99.90;;;;;;2089102;28;20519;-65
2021/05/27 01:29:31;;;;;;;2.30;1.50;;;5.80;99.90;;;;;;2089074;28;20726;-65
2021/05/27 01:30:31;;;;;;;2.50;1.63;;;5.80;99.90;;;;;;2089060;28;20199;-66
2021/05/27 01:31:33;;;;;;;2.27;1.53;;;5.80;99.90;;;;;;2088876;28;20648;-65
2021/05/27 01:32:34;;;;;;;3.00;1.85;;;5.90;99.90;;;;;;2089139;28;20180;-67
2021/05/27 01:33:36;;;;;;;2.50;1.60;;;5.90;99.90;;;;;;2088982;28;20183;-66
2021/05/27 01:34:36;;;;;;;1.75;1.30;;;5.90;99.90;;;;;;2089172;28;20222;-65
2021/05/27 01:35:37;;;;;;;3.17;1.60;;;5.80;99.90;;;;;;2089008;28;20229;-67
2021/05/27 01:36:45;;;;;;;2.60;1.37;;;5.80;99.90;;;;;;2089302;28;20194;-66
2021/05/27 01:37:46;;;;;;;1.35;1.25;;;5.90;99.90;;;;;;2095705;28;20229;-65
2021/05/27 01:38:46;;;;;;;1.30;1.20;;;5.80;99.90;;;;;;2096671;28;20681;-65
2021/05/27 01:39:48;;;;;;;2.37;1.30;;;5.90;99.90;;;;;;2097217;28;20172;-65
2021/05/27 01:40:50;;;;;;;2.40;1.27;;;5.90;99.90;;;;;;2096766;28;20179;-65
2021/05/27 01:41:51;;;;;;;1.52;1.20;;;5.90;99.90;;;;;;2096468;28;20186;-66
2021/05/27 01:42:55;;;;;;;1.40;1.30;;;5.90;99.90;;;;;;2097380;28;20647;-66
2021/05/27 01:43:56;;;;;;;1.80;1.70;;;5.80;99.90;;;;;;2096512;28;20177;-66
2021/05/27 01:44:56;;;;;;;2.07;1.80;;;5.80;99.90;;;;;;2096737;28;20179;-66
2021/05/27 01:45:58;;;;;;;2.27;1.87;;;5.80;99.90;;;;;;2096578;28;20239;-66
2021/05/27 01:46:59;;;;;;;2.33;1.55;;;5.80;99.90;;;;;;2088700;28;20179;-65
2021/05/27 01:48:00;;;;;;;2.97;1.87;;;5.80;99.90;;;;;;2096692;28;21039;-65
2021/05/27 01:49:02;;;;;;;2.13;1.80;;;5.80;99.90;;;;;;2096896;28;20183;-65
2021/05/27 01:50:07;;;;;;;3.00;1.83;;;5.90;99.90;;;;;;2096442;28;20647;-65
2021/05/27 01:51:07;;;;;;;3.33;2.20;;;5.80;99.90;;;;;;2097357;28;20178;-65
2021/05/27 01:52:09;;;;;;;1.80;1.60;;;5.80;99.90;;;;;;2097093;28;20282;-66
2021/05/27 01:53:11;;;;;;;2.42;1.80;;;5.80;99.90;;;;;;2096678;28;20693;-65
2021/05/27 01:54:12;;;;;;;1.52;1.23;;;5.80;99.90;;;;;;2096613;28;20218;-66
2021/05/27 01:55:13;;;;;;;1.50;1.30;;;5.80;99.90;;;;;;2096646;28;20190;-65
2021/05/27 01:56:14;;;;;;;1.52;1.35;;;5.80;99.90;;;;;;2097129;28;20302;-65
2021/05/27 01:57:15;;;;;;;2.00;1.50;;;5.90;99.90;;;;;;2096733;28;20191;-66
2021/05/27 01:58:17;;;;;;;3.17;1.50;;;6.00;99.90;;;;;;2096663;28;20233;-67
2021/05/27 01:59:18;;;;;;;2.65;1.65;;;5.90;99.90;;;;;;2097348;28;20174;-66
2021/05/27 02:00:19;;;;;;;3.43;1.70;;;5.90;99.90;;;;;;2096971;28;20199;-66
2021/05/27 02:01:20;;;;;;;3.83;2.10;;;5.90;99.90;;;;;;2097055;28;20278;-66
2021/05/27 02:02:20;;;;;;;4.97;2.70;;;5.90;99.90;;;;;;2097266;28;20183;-66
2021/05/27 02:03:21;;;;;;;4.03;2.00;;;5.80;99.90;;;;;;2097295;28;20209;-66
2021/05/27 02:04:22;;;;;;;6.70;2.53;;;5.80;99.90;;;;;;2097185;28;20207;-66
2021/05/27 02:05:23;;;;;;;4.57;2.60;;;5.80;99.90;;;;;;2097114;28;20631;-66
2021/05/27 02:06:24;;;;;;;5.20;2.50;;;5.80;99.90;;;;;;2097164;28;20179;-66
2021/05/27 02:07:27;;;;;;;4.47;2.00;;;5.80;99.90;;;;;;2097328;28;20186;-66
2021/05/27 02:08:28;;;;;;;4.47;2.20;;;5.80;99.90;;;;;;2097308;28;20567;-65
2021/05/27 02:09:29;;;;;;;2.10;1.60;;;5.80;99.90;;;;;;2097296;28;20275;-66
2021/05/27 02:10:29;;;;;;;5.33;2.20;;;5.80;99.90;;;;;;2096562;28;20204;-66
2021/05/27 02:11:30;;;;;;;3.93;1.97;;;5.70;99.90;;;;;;2096999;28;20191;-65
2021/05/27 02:12:31;;;;;;;3.17;2.10;;;5.70;99.90;;;;;;2097163;28;20791;-68
2021/05/27 02:13:31;;;;;;;1.83;1.60;;;5.80;99.90;;;;;;2097280;28;20194;-65
2021/05/27 02:14:33;;;;;;;4.20;1.80;;;5.80;99.90;;;;;;2097217;28;20189;-65
2021/05/27 02:15:34;;;;;;;2.08;1.70;;;5.70;99.90;;;;;;2096400;28;20310;-66
2021/05/27 02:16:37;;;;;;;2.45;2.13;;;5.70;99.90;;;;;;2096511;28;20180;-65
2021/05/27 02:17:38;;;;;;;2.90;1.90;;;5.70;99.90;;;;;;2097252;28;20178;-65
2021/05/27 02:18:39;;;;;;;2.83;2.00;;;5.80;99.90;;;;;;2096427;28;20186;-66
2021/05/27 02:19:39;;;;;;;3.17;2.23;;;5.80;99.90;;;;;;2096430;28;20710;-66
2021/05/27 02:20:40;;;;;;;2.53;1.80;;;5.80;99.90;;;;;;2097077;28;20285;-66
2021/05/27 02:21:42;;;;;;;3.13;2.00;;;5.90;99.90;;;;;;2096828;28;20634;-66
2021/05/27 02:22:43;;;;;;;2.67;2.00;;;5.90;99.90;;;;;;2097223;28;20207;-66
2021/05/27 02:23:43;;;;;;;2.97;1.80;;;5.80;99.90;;;;;;2097148;28;20180;-66
2021/05/27 02:24:44;;;;;;;3.40;1.77;;;5.80;99.90;;;;;;2098830;28;20178;-66
2021/05/27 02:25:45;;;;;;;3.13;1.93;;;5.80;99.90;;;;;;2098714;28;20825;-66
2021/05/27 02:26:46;;;;;;;3.13;1.90;;;5.80;99.90;;;;;;2098732;28;20175;-66
2021/05/27 02:27:47;;;;;;;2.00;1.80;;;5.80;99.90;;;;;;2098140;28;20266;-66
2021/05/27 02:28:49;;;;;;;2.50;1.93;;;5.70;99.90;;;;;;2089970;28;20581;-65
2021/05/27 02:29:49;;;;;;;2.70;1.80;;;5.70;99.90;;;;;;2097972;28;20199;-66
2021/05/27 02:30:50;;;;;;;4.23;1.97;;;5.70;99.90;;;;;;2098857;28;20736;-66
2021/05/27 02:31:51;;;;;;;2.67;1.90;;;5.70;99.90;;;;;;2098296;28;20261;-66
2021/05/27 02:32:52;;;;;;;2.83;1.93;;;5.70;99.90;;;;;;2098797;28;20583;-66
2021/05/27 02:33:53;;;;;;;1.65;1.55;;;5.70;99.90;;;;;;2098584;28;20189;-66
2021/05/27 02:34:54;;;;;;;3.97;2.10;;;5.70;99.90;;;;;;2098142;28;20538;-66
2021/05/27 02:35:55;;;;;;;3.27;2.07;;;5.70;99.90;;;;;;2097930;28;20199;-66
2021/05/27 02:36:56;;;;;;;2.03;1.70;;;5.80;99.90;;;;;;2098641;28;20697;-66
2021/05/27 02:37:56;;;;;;;2.87;2.20;;;5.80;99.90;;;;;;2098713;28;20236;-66
2021/05/27 02:38:58;;;;;;;3.37;2.30;;;5.80;99.90;;;;;;2098717;28;20167;-66
2021/05/27 02:39:59;;;;;;;2.40;2.20;;;5.70;99.90;;;;;;2098682;28;20176;-66
2021/05/27 02:41:00;;;;;;;2.63;2.43;;;5.70;99.90;;;;;;2098792;28;20180;-66
2021/05/27 02:42:00;;;;;;;3.88;2.00;;;5.70;99.90;;;;;;2098340;28;20232;-66
2021/05/27 02:43:01;;;;;;;2.23;1.87;;;5.80;99.90;;;;;;2098681;28;20183;-66
2021/05/27 02:44:02;;;;;;;3.40;2.23;;;5.80;99.90;;;;;;2098619;28;20643;-66
2021/05/27 02:45:05;;;;;;;4.18;2.10;;;5.80;99.90;;;;;;2098665;28;20602;-65
2021/05/27 02:46:06;;;;;;;2.60;2.40;;;5.80;99.90;;;;;;2097859;28;20195;-66
2021/05/27 02:47:07;;;;;;;3.00;2.25;;;5.80;99.90;;;;;;2089863;28;20214;-66
2021/05/27 02:48:08;;;;;;;3.40;2.77;;;5.80;99.90;;;;;;2097904;28;20686;-66
2021/05/27 02:49:09;;;;;;;3.38;2.95;;;5.80;99.90;;;;;;2098598;28;20183;-66
2021/05/27 02:50:10;;;;;;;3.27;2.70;;;5.90;99.90;;;;;;2098417;28;20204;-66
2021/05/27 02:51:11;;;;;;;3.63;3.33;;;5.90;99.90;;;;;;2095210;28;20270;-65
2021/05/27 02:52:12;;;;;;;3.60;2.78;;;5.90;99.90;;;;;;2089352;28;20215;-65
2021/05/27 02:53:13;;;;;;;2.90;2.57;;;5.90;99.90;;;;;;2089391;28;20295;-65
2021/05/27 02:54:15;;;;;;;3.50;2.17;;;5.90;99.90;;;;;;2086455;28;20588;-66
2021/05/27 02:55:15;;;;;;;3.50;2.85;;;5.90;99.90;;;;;;2090418;28;20180;-65
2021/05/27 02:56:16;;;;;;;2.70;2.37;;;5.80;99.90;;;;;;2090267;28;20205;-65
2021/05/27 02:57:17;;;;;;;3.30;2.80;;;5.90;99.90;;;;;;2090406;28;20709;-65
2021/05/27 02:58:18;;;;;;;3.33;2.70;;;5.90;99.90;;;;;;2090155;28;20230;-65
2021/05/27 02:59:19;;;;;;;3.30;2.47;;;5.90;99.90;;;;;;2090266;28;20172;-66
2021/05/27 03:00:20;;;;;;;2.83;2.27;;;5.90;99.90;;;;;;2090248;28;20301;-65
2021/05/27 03:01:21;;;;;;;2.67;2.35;;;5.80;99.90;;;;;;2090197;28;20212;-65
2021/05/27 03:02:22;;;;;;;4.00;2.10;;;5.80;99.90;;;;;;2090271;28;20179;-65
2021/05/27 03:03:22;;;;;;;2.67;2.43;;;5.80;99.90;;;;;;2090390;28;20548;-65
2021/05/27 03:04:23;;;;;;;3.80;2.87;;;5.70;99.90;;;;;;2090222;28;20190;-65
2021/05/27 03:05:24;;;;;;;2.97;2.50;;;5.70;99.90;;;;;;2091128;28;20175;-65
2021/05/27 03:06:24;;;;;;;2.40;2.20;;;5.70;99.90;;;;;;2090344;28;20181;-65
2021/05/27 03:07:25;;;;;;;2.90;2.40;;;5.70;99.90;;;;;;2090392;28;20638;-65
2021/05/27 03:08:28;;;;;;;3.50;2.30;;;5.80;99.90;;;;;;2090240;28;20218;-65
2021/05/27 03:09:28;;;;;;;2.78;2.40;;;5.80;99.90;;;;;;2090161;28;20187;-65
2021/05/27 03:10:29;;;;;;;3.00;2.40;;;5.80;99.90;;;;;;2090123;28;20216;-65
2021/05/27 03:11:30;;;;;;;3.57;2.60;;;5.70;99.90;;;;;;2090021;28;20275;-66
2021/05/27 03:12:30;;;;;;;3.83;2.70;;;5.70;99.90;;;;;;2090128;28;20669;-66
2021/05/27 03:13:31;;;;;;;6.03;3.53;;;5.70;99.90;;;;;;2090302;28;20208;-66
2021/05/27 03:14:32;;;;;;;2.70;2.47;;;5.70;99.90;;;;;;2090020;28;20203;-66
2021/05/27 03:15:33;;;;;;;5.00;2.67;;;5.80;99.90;;;;;;2090094;28;20187;-66
2021/05/27 03:16:34;;;;;;;2.73;2.20;;;5.80;99.90;;;;;;2089464;28;20191;-66
2021/05/27 03:17:34;;;;;;;3.83;2.50;;;5.80;99.90;;;;;;2089578;28;20199;-66
2021/05/27 03:18:35;;;;;;;3.87;2.37;;;5.80;99.90;;;;;;2089392;28;20569;-66
2021/05/27 03:19:36;;;;;;;3.60;2.50;;;5.80;99.90;;;;;;2090090;28;20179;-66
2021/05/27 03:20:38;;;;;;;6.67;2.87;;;5.90;99.90;;;;;;2089895;28;20272;-66
2021/05/27 03:21:39;;;;;;;3.00;2.47;;;5.90;99.90;;;;;;2089951;28;20179;-66
2021/05/27 03:22:40;;;;;;;4.03;3.00;;;5.90;99.90;;;;;;2090095;28;20211;-66
2021/05/27 03:23:40;;;;;;;2.55;2.35;;;5.90;99.90;;;;;;2090101;28;20190;-66
2021/05/27 03:24:41;;;;;;;4.50;3.13;;;5.90;99.90;;;;;;2090088;28;20665;-66
2021/05/27 03:25:42;;;;;;;4.43;2.90;;;6.00;99.90;;;;;;2089929;28;20282;-66
2021/05/27 03:26:43;;;;;;;3.13;2.83;;;5.90;99.90;;;;;;2090010;28;20643;-66
2021/05/27 03:27:43;;;;;;;8.17;3.70;;;6.00;99.90;;;;;;2090247;28;20208;-66
2021/05/27 03:28:44;;;;;;;2.73;2.53;;;5.90;99.90;;;;;;2089992;28;20187;-66
2021/05/27 03:29:45;;;;;;;5.37;3.67;;;5.90;99.90;;;;;;2090098;28;20259;-67
2021/05/27 03:30:46;;;;;;;3.30;2.80;;;5.90;99.90;;;;;;2089975;28;20212;-66
2021/05/27 03:31:46;;;;;;;3.27;2.87;;;5.90;99.90;;;;;;2089876;28;20738;-67
2021/05/27 03:32:48;;;;;;;3.47;2.43;;;5.90;99.90;;;;;;2089939;28;20466;-66
2021/05/27 03:33:49;;;;;;;3.25;2.60;;;5.80;99.90;;;;;;2090187;28;20210;-66
2021/05/27 03:34:49;;;;;;;3.67;2.97;;;5.80;99.90;;;;;;2090838;28;20183;-65
2021/05/27 03:35:50;;;;;;;3.43;2.93;;;5.80;99.90;;;;;;2090917;28;20203;-66
2021/05/27 03:36:51;;;;;;;4.70;3.40;;;5.90;99.90;;;;;;2090154;28;20203;-65
2021/05/27 03:37:51;;;;;;;3.33;3.03;;;5.80;99.90;;;;;;2090099;28;20575;-65
2021/05/27 03:38:52;;;;;;;4.00;2.70;;;5.90;99.90;;;;;;2090158;28;20650;-65
2021/05/27 03:40:12;;;;;;;4.00;3.00;;;5.90;99.90;;;;;;2089973;28;20179;-65
2021/05/27 03:41:13;;;;;;;4.05;3.47;;;5.80;99.90;;;;;;2090018;28;20376;-65
2021/05/27 03:42:13;;;;;;;4.83;4.20;;;5.80;99.90;;;;;;2089921;28;20270;-65
2021/05/27 03:43:14;;;;;;;4.10;3.40;;;5.80;99.90;;;;;;2089833;28;20746;-65
2021/05/27 03:44:15;;;;;;;3.60;3.07;;;5.90;99.90;;;;;;2090054;28;20204;-66
2021/05/27 03:45:20;;;;;;;4.87;3.17;;;5.90;99.90;;;;;;2089993;28;20675;-65
2021/05/27 03:46:20;;;;;;;2.92;2.60;;;5.90;99.90;;;;;;2089919;28;20193;-65
2021/05/27 03:47:21;;;;;;;5.23;2.77;;;5.90;99.90;;;;;;2089702;28;20201;-65
2021/05/27 03:48:22;;;;;;;3.27;2.90;;;5.80;99.90;;;;;;2089247;28;20188;-65
2021/05/27 03:49:22;;;;;;;4.30;3.50;;;5.80;99.90;;;;;;2089313;28;20327;-65
2021/05/27 03:50:26;;;;;;;6.33;2.97;;;5.80;99.90;;;;;;2089769;28;20203;-65
2021/05/27 03:51:27;;;;;;;6.85;3.75;;;5.90;99.90;;;;;;2089719;28;20180;-65
2021/05/27 03:52:28;;;;;;;8.17;3.50;;;5.80;99.90;;;;;;2089673;28;20183;-65
2021/05/27 03:53:28;;;;;;;7.47;3.80;;;5.80;99.90;;;;;;2089915;28;20738;-65
2021/05/27 03:54:29;;;;;;;6.23;3.40;;;5.80;99.90;;;;;;2089826;28;20221;-65
2021/05/27 03:55:30;;;;;;;6.23;2.90;;;5.90;99.90;;;;;;2089783;28;20216;-65
2021/05/27 03:56:30;;;;;;;5.07;3.10;;;5.80;99.90;;;;;;2089738;28;20211;-65
2021/05/27 03:57:31;;;;;;;5.63;4.13;;;5.80;99.90;;;;;;2089851;28;20180;-65
2021/05/27 04:01:10;;;;;;;4.28;2.50;;;5.70;99.90;;;;;;2089758;28;20180;-65
2021/05/27 04:02:11;;;;;;;3.13;2.63;;;5.70;99.90;;;;;;2089612;28;20184;-65
2021/05/27 04:03:12;;;;;;;4.20;2.40;;;5.70;99.90;;;;;;2089760;28;20176;-65
2021/05/27 04:07:10;;;;;;;2.88;2.35;;;5.70;99.90;;;;;;2080425;28;20164;-65
2021/05/27 04:08:11;;;;;;;3.40;2.50;;;5.70;99.90;;;;;;2084166;28;20219;-65
2021/05/27 04:09:12;;;;;;;4.00;2.60;;;5.70;99.90;;;;;;2089576;28;20214;-65
2021/05/27 04:10:13;;;;;;;4.32;2.97;;;5.80;99.90;;;;;;2089811;28;20203;-66
2021/05/27 04:11:13;;;;;;;3.57;2.87;;;5.80;99.90;;;;;;2089486;28;20840;-66
2021/05/27 04:13:33;;;;;;;4.85;3.47;;;5.80;99.90;;;;;;2089871;28;20163;-66
2021/05/27 04:14:34;;;;;;;4.60;3.60;;;5.80;99.90;;;;;;2089507;28;20262;-66
2021/05/27 04:15:38;;;;;;;5.67;4.27;;;5.90;99.90;;;;;;2089633;28;20261;-66
2021/05/27 04:16:38;;;;;;;5.22;3.88;;;5.90;99.90;;;;;;2089637;28;20180;-67
2021/05/27 04:17:39;;;;;;;4.23;3.33;;;5.90;99.90;;;;;;2089656;28;20270;-66
2021/05/27 04:18:40;;;;;;;5.37;4.47;;;5.90;99.90;;;;;;2089505;28;20274;-66
2021/05/27 04:19:41;;;;;;;4.00;3.40;;;6.00;99.90;;;;;;2089429;28;20449;-65
2021/05/27 04:20:49;;;;;;;5.77;3.73;;;6.00;99.90;;;;;;2089648;28;20207;-66
2021/05/27 04:21:49;;;;;;;6.47;4.35;;;6.00;99.90;;;;;;2089456;28;20442;-66
2021/05/27 04:22:51;;;;;;;5.00;3.70;;;6.00;99.90;;;;;;2089567;28;20248;-66
2021/05/27 04:23:52;;;;;;;6.55;4.70;;;6.00;99.90;;;;;;2089102;28;20210;-66
2021/05/27 04:24:52;;;;;;;5.77;4.43;;;6.00;99.90;;;;;;2088807;28;20171;-65
2021/05/27 04:25:53;;;;;;;8.00;5.13;;;6.10;99.90;;;;;;2089640;28;20188;-66
2021/05/27 04:26:54;;;;;;;5.80;4.27;;;6.10;99.90;;;;;;2089637;28;20263;-66
2021/05/27 04:27:57;;;;;;;6.03;4.10;;;6.10;99.90;;;;;;2089578;28;20680;-66
2021/05/27 04:28:58;;;;;;;6.32;4.20;;;6.20;99.90;;;;;;2089912;28;20182;-66
2021/05/27 04:30:12;;;;;;;7.90;4.47;;;6.30;99.90;;;;;;2089623;28;20192;-65
2021/05/27 04:31:17;;;;;;;5.13;4.22;;;6.30;99.90;;;;;;2089691;28;20186;-66
2021/05/27 04:33:57;;;;;;;7.28;4.47;;;6.20;99.90;;;;;;2080324;28;20651;-66
2021/05/27 04:34:57;;;;;;;7.90;5.70;;;6.20;99.90;;;;;;2080678;28;20209;-66
2021/05/27 04:35:58;;;;;;;5.40;4.07;;;6.20;99.90;;;;;;2080418;28;20208;-66
2021/05/27 04:36:58;;;;;;;6.33;5.30;;;6.20;99.90;;;;;;2080797;28;20181;-66
2021/05/27 04:38:03;;;;;;;4.90;4.40;;;6.10;99.90;;;;;;2072338;28;20613;-65
2021/05/27 04:39:04;;;;;;;8.43;5.18;;;6.10;99.90;;;;;;2072934;28;20181;-67
2021/05/27 04:40:06;;;;;;;7.33;5.17;;;6.10;99.90;;;;;;2089609;28;20275;-67
2021/05/27 04:41:07;;;;;;;6.20;4.50;;;6.00;99.90;;;;;;2089511;28;20309;-65
2021/05/27 04:42:08;;;;;;;5.18;3.75;;;6.00;99.90;;;;;;2089538;28;20194;-66
2021/05/27 04:43:09;;;;;;;5.27;4.33;;;6.10;99.90;;;;;;2089837;28;20553;-66
2021/05/27 04:44:10;;;;;;;5.93;3.97;;;6.10;99.90;;;;;;2089657;28;20230;-66
2021/05/27 04:45:11;;;;;;;5.37;4.60;;;6.10;99.90;;;;;;2089662;28;20230;-66
2021/05/27 04:46:12;;;;;;;9.70;5.53;;;6.20;99.90;;;;;;2089524;28;20188;-66
2021/05/27 04:47:13;;;;;;;6.37;4.80;;;6.20;99.90;;;;;;2089344;28;20639;-66
2021/05/27 04:48:15;;;;;;;9.53;5.47;;;6.20;99.90;;;;;;2089036;28;20183;-66
2021/05/27 04:49:16;;;;;;;9.80;5.70;;;6.30;99.90;;;;;;2089728;28;20172;-65
2021/05/27 04:50:17;;;;;;;7.17;5.37;;;6.30;99.90;;;;;;2089608;28;20756;-66
2021/05/27 04:51:18;;;;;;;5.65;4.75;;;6.30;99.90;;;;;;2089447;28;20180;-66
2021/05/27 04:52:18;;;;;;;4.43;3.60;;;6.30;99.90;;;;;;2082606;28;20234;-66
2021/05/27 04:53:21;;;;;;;6.07;3.80;;;6.30;99.90;;;;;;2081529;28;20196;-66
2021/05/27 04:54:22;;;;;;;7.38;4.45;;;6.40;99.90;;;;;;2084469;28;20290;-66
2021/05/27 04:55:23;;;;;;;4.80;4.20;;;6.40;99.90;;;;;;2089088;28;20198;-66
2021/05/27 04:56:24;;;;;;;7.45;5.70;;;6.40;99.90;;;;;;2081322;28;20698;-67
2021/05/27 04:57:25;;;;;;;7.80;5.70;;;6.40;99.90;;;;;;2104362;22;20243;-65
2021/05/27 04:58:26;;;;;;;5.30;4.28;;;6.40;99.90;;;;;;2081968;28;20275;-65
2021/05/27 04:59:29;;;;;;;9.07;5.18;;;6.30;99.90;;;;;;2081563;28;20180;-64
2021/05/27 05:00:30;;;;;;;9.00;5.07;;;6.30;99.90;;;;;;2081678;28;20185;-65
2021/05/27 05:01:30;;;;;;;7.10;3.70;;;6.40;99.90;;;;;;2081660;28;20803;-65
2021/05/27 05:02:31;;;;;;;6.83;5.07;;;6.40;99.90;;;;;;2081801;28;20207;-64
2021/05/27 05:03:32;;;;;;;6.50;5.00;;;6.40;99.90;;;;;;2081064;28;20235;-64
2021/05/27 05:04:32;;;;;;;7.00;4.97;;;6.40;99.90;;;;;;2081411;28;20183;-64
2021/05/27 05:05:36;;;;;;;5.03;4.13;;;6.30;99.90;;;;;;2081914;28;20637;-64
2021/05/27 05:06:38;;;;;;;4.07;3.53;;;6.40;99.90;;;;;;2081781;28;20189;-64
2021/05/27 05:07:41;;;;;;;5.95;4.03;;;6.40;99.90;;;;;;2081484;28;20228;-64
2021/05/27 05:08:41;;;;;;;5.28;3.92;;;6.50;99.90;;;;;;2081350;28;20180;-64
2021/05/27 05:09:42;;;;;;;4.03;3.00;;;6.60;99.90;;;;;;2081199;28;20185;-63
2021/05/27 05:10:43;;;;;;;5.83;3.70;;;6.60;99.90;;;;;;2081116;28;20185;-64
2021/05/27 05:11:44;;;;;;;6.32;4.22;;;6.70;99.90;;;;;;2080906;28;20192;-63
2021/05/27 05:12:46;;;;;;;6.07;4.60;;;6.70;99.90;;;;;;2081065;28;20558;-64
2021/05/27 05:13:47;;;;;;;4.90;3.95;;;6.60;99.90;;;;;;2081069;28;20256;-64
2021/05/27 05:14:47;;;;;;;5.10;3.73;;;6.60;99.90;;;;;;2081305;28;20184;-64
2021/05/27 05:15:49;;;;;;;6.57;4.90;;;6.70;99.90;;;;;;2080893;28;20173;-64
2021/05/27 05:16:50;;;;;;;6.28;5.32;;;6.70;99.90;;;;;;2080573;28;20181;-64
2021/05/27 05:18:17;;;;;;;5.43;4.70;;;6.90;99.90;;;;;;2080450;28;20188;-64
2021/05/27 05:19:17;;;;;;;4.85;4.32;;;6.90;99.90;;;;;;2080753;28;20188;-64
2021/05/27 05:20:28;;;;;;;4.40;3.30;;;6.90;99.90;;;;;;2081145;28;20181;-63
2021/05/27 05:21:29;;;;;;;6.28;3.85;;;7.00;99.90;;;;;;2080897;28;20211;-63
2021/05/27 05:22:29;;;;;;;4.40;4.00;;;7.00;99.90;;;;;;2080910;28;20247;-63
2021/05/27 05:23:30;;;;;;;5.67;3.93;;;7.00;99.90;;;;;;2080982;28;20181;-64
2021/05/27 05:24:31;;;;;;;4.77;3.57;;;7.00;99.90;;;;;;2080918;28;20657;-64
2021/05/27 05:25:34;;;;;;;4.10;3.60;;;7.00;99.90;;;;;;2081087;28;20174;-63
2021/05/27 05:26:35;;;;;;;4.47;3.45;;;7.00;99.90;;;;;;2083815;28;20694;-64
2021/05/27 05:27:36;;;;;;;3.70;3.07;;;7.00;99.90;;;;;;2091165;28;20191;-64
2021/05/27 05:28:36;;;;;;;4.60;3.67;;;7.10;99.90;;;;;;2089166;28;20422;-64
2021/05/27 05:29:37;;;;;;;3.63;3.13;;;7.00;99.90;;;;;;2089291;28;20188;-63
2021/05/27 05:30:38;;;;;;;6.03;3.60;;;7.10;99.90;;;;;;2089226;28;20573;-64
2021/05/27 05:31:39;;;;;;;3.33;2.80;;;7.10;99.90;;;;;;2089252;28;20180;-63
2021/05/27 05:32:40;;;;;;;4.73;3.30;;;7.10;99.90;;;;;;2089194;28;20524;-64
2021/05/27 05:33:41;;;;;;;3.42;3.13;;;7.10;99.90;;;;;;2089248;28;20528;-63
2021/05/27 05:34:42;;;;;;;4.03;3.37;;;7.00;99.90;;;;;;2089038;28;20271;-64
2021/05/27 05:35:42;;;;;;;3.87;3.57;;;6.90;99.90;;;;;;2088607;28;20661;-63